sensor_id;sensor_type;location;lat;lon;timestamp;temperature;humidity
23532;DHT22;11943;52.270;20.978;2023-03-16T00:00:52;1.60;99.90
23532;DHT22;11943;52.270;20.978;2023-03-16T00:03:18;1.60;99.90
23532;DHT22;11943;52.270;20.978;2023-03-16T00:05:52;1.60;99.90
23532;DHT22;11943;52.270;20.978;2023-03-16T00:08:18;1.60;99.90
23532;DHT22;11943;52.270;20.978;2023-03-16T00:10:45;1.50;99.90
23532;DHT22;11943;52.270;20.978;2023-03-16T00:13:18;1.50;99.90
23532;DHT22;11943;52.270;20.978;2023-03-16T00:15:55;1.40;99.90
23532;DHT22;11943;52.270;20.978;2023-03-16T00:18:22;1.40;99.90
23532;DHT22;11943;52.270;20.978;2023-03-16T00:21:01;1.40;99.90
23532;DHT22;11943;52.270;20.978;2023-03-16T00:23:27;1.40;99.90
23532;DHT22;11943;52.270;20.978;2023-03-16T00:25:57;1.30;99.90
23532;DHT22;11943;52.270;20.978;2023-03-16T00:28:24;1.30;99.90
23532;DHT22;11943;52.270;20.978;2023-03-16T00:30:49;1.30;99.90
23532;DHT22;11943;52.270;20.978;2023-03-16T00:33:16;1.20;99.90
23532;DHT22;11943;52.270;20.978;2023-03-16T00:35:45;1.20;99.90
23532;DHT22;11943;52.270;20.978;2023-03-16T00:38:17;1.20;99.90
23532;DHT22;11943;52.270;20.978;2023-03-16T00:40:43;1.20;99.90
23532;DHT22;11943;52.270;20.978;2023-03-16T00:43:09;1.20;99.90
23532;DHT22;11943;52.270;20.978;2023-03-16T00:45:35;1.20;99.90
23532;DHT22;11943;52.270;20.978;2023-03-16T00:48:01;1.10;99.90
23532;DHT22;11943;52.270;20.978;2023-03-16T00:50:27;1.10;99.90
23532;DHT22;11943;52.270;20.978;2023-03-16T00:52:52;1.10;99.90
23532;DHT22;11943;52.270;20.978;2023-03-16T00:55:19;1.10;99.90
23532;DHT22;11943;52.270;20.978;2023-03-16T00:57:45;1.10;99.90
23532;DHT22;11943;52.270;20.978;2023-03-16T01:00:12;1.10;99.90
23532;DHT22;11943;52.270;20.978;2023-03-16T01:02:40;1.10;99.90
23532;DHT22;11943;52.270;20.978;2023-03-16T01:05:07;1.10;99.90
23532;DHT22;11943;52.270;20.978;2023-03-16T01:07:33;1.00;99.90
23532;DHT22;11943;52.270;20.978;2023-03-16T01:10:01;1.00;99.90
23532;DHT22;11943;52.270;20.978;2023-03-16T01:12:27;1.00;99.90
23532;DHT22;11943;52.270;20.978;2023-03-16T01:14:52;1.00;99.90
23532;DHT22;11943;52.270;20.978;2023-03-16T01:17:20;1.00;99.90
23532;DHT22;11943;52.270;20.978;2023-03-16T01:19:47;1.00;99.90
23532;DHT22;11943;52.270;20.978;2023-03-16T01:22:14;1.00;99.90
23532;DHT22;11943;52.270;20.978;2023-03-16T01:24:40;0.90;99.90
23532;DHT22;11943;52.270;20.978;2023-03-16T01:27:07;0.90;99.90
23532;DHT22;11943;52.270;20.978;2023-03-16T01:29:33;0.80;99.90
23532;DHT22;11943;52.270;20.978;2023-03-16T01:32:00;0.70;99.90
23532;DHT22;11943;52.270;20.978;2023-03-16T01:34:26;0.80;99.90
23532;DHT22;11943;52.270;20.978;2023-03-16T01:36:52;0.70;99.90
23532;DHT22;11943;52.270;20.978;2023-03-16T01:39:18;0.50;99.90
23532;DHT22;11943;52.270;20.978;2023-03-16T01:41:45;0.50;99.90
23532;DHT22;11943;52.270;20.978;2023-03-16T01:44:20;0.40;99.90
23532;DHT22;11943;52.270;20.978;2023-03-16T01:46:47;0.30;99.90
23532;DHT22;11943;52.270;20.978;2023-03-16T01:49:34;0.20;99.90
23532;DHT22;11943;52.270;20.978;2023-03-16T01:52:23;0.30;99.90
23532;DHT22;11943;52.270;20.978;2023-03-16T01:54:59;0.30;99.90
23532;DHT22;11943;52.270;20.978;2023-03-16T01:57:31;0.30;99.90
23532;DHT22;11943;52.270;20.978;2023-03-16T02:00:13;0.30;99.90
23532;DHT22;11943;52.270;20.978;2023-03-16T02:02:59;0.30;99.90
23532;DHT22;11943;52.270;20.978;2023-03-16T02:05:32;0.30;99.90
23532;DHT22;11943;52.270;20.978;2023-03-16T02:08:01;0.40;99.90
23532;DHT22;11943;52.270;20.978;2023-03-16T02:10:28;0.30;99.90
23532;DHT22;11943;52.270;20.978;2023-03-16T02:12:54;0.30;99.90
23532;DHT22;11943;52.270;20.978;2023-03-16T02:15:20;0.30;99.90
23532;DHT22;11943;52.270;20.978;2023-03-16T02:17:47;0.30;99.90
23532;DHT22;11943;52.270;20.978;2023-03-16T02:23:03;0.30;99.90
23532;DHT22;11943;52.270;20.978;2023-03-16T02:30:32;0.30;99.90
23532;DHT22;11943;52.270;20.978;2023-03-16T02:32:58;0.30;99.90
23532;DHT22;11943;52.270;20.978;2023-03-16T02:35:24;0.30;99.90
23532;DHT22;11943;52.270;20.978;2023-03-16T02:37:50;0.30;99.90
23532;DHT22;11943;52.270;20.978;2023-03-16T02:40:23;0.30;99.90
23532;DHT22;11943;52.270;20.978;2023-03-16T02:43:03;0.20;99.90
23532;DHT22;11943;52.270;20.978;2023-03-16T02:48:11;0.10;99.90
23532;DHT22;11943;52.270;20.978;2023-03-16T02:50:48;0.10;99.90
23532;DHT22;11943;52.270;20.978;2023-03-16T02:53:15;0.00;99.90
23532;DHT22;11943;52.270;20.978;2023-03-16T02:55:41;0.00;99.90
23532;DHT22;11943;52.270;20.978;2023-03-16T02:58:07;0.00;99.90
23532;DHT22;11943;52.270;20.978;2023-03-16T03:00:32;-0.10;99.90
23532;DHT22;11943;52.270;20.978;2023-03-16T03:02:58;0.00;99.90
23532;DHT22;11943;52.270;20.978;2023-03-16T03:05:24;0.00;99.90
23532;DHT22;11943;52.270;20.978;2023-03-16T03:07:50;0.10;99.90
23532;DHT22;11943;52.270;20.978;2023-03-16T03:10:16;0.10;99.90
23532;DHT22;11943;52.270;20.978;2023-03-16T03:12:41;0.10;99.90
23532;DHT22;11943;52.270;20.978;2023-03-16T03:15:07;0.10;99.90
23532;DHT22;11943;52.270;20.978;2023-03-16T03:17:34;0.10;99.90
23532;DHT22;11943;52.270;20.978;2023-03-16T03:20:00;0.10;99.90
23532;DHT22;11943;52.270;20.978;2023-03-16T03:22:38;0.10;99.90
23532;DHT22;11943;52.270;20.978;2023-03-16T03:25:04;0.00;99.90
23532;DHT22;11943;52.270;20.978;2023-03-16T03:27:30;0.00;99.90
23532;DHT22;11943;52.270;20.978;2023-03-16T03:29:57;0.10;99.90
23532;DHT22;11943;52.270;20.978;2023-03-16T03:32:23;0.00;99.90
23532;DHT22;11943;52.270;20.978;2023-03-16T03:34:49;0.00;99.90
23532;DHT22;11943;52.270;20.978;2023-03-16T03:37:14;0.00;99.90
23532;DHT22;11943;52.270;20.978;2023-03-16T03:39:40;0.00;99.90
23532;DHT22;11943;52.270;20.978;2023-03-16T03:42:06;0.00;99.90
23532;DHT22;11943;52.270;20.978;2023-03-16T03:44:32;-0.10;99.90
23532;DHT22;11943;52.270;20.978;2023-03-16T03:47:00;-0.10;99.90
23532;DHT22;11943;52.270;20.978;2023-03-16T03:49:26;-0.10;99.90
23532;DHT22;11943;52.270;20.978;2023-03-16T03:51:51;-0.10;99.90
23532;DHT22;11943;52.270;20.978;2023-03-16T03:54:17;-0.10;99.90
23532;DHT22;11943;52.270;20.978;2023-03-16T03:56:43;-0.10;99.90
23532;DHT22;11943;52.270;20.978;2023-03-16T03:59:08;-0.10;99.90
23532;DHT22;11943;52.270;20.978;2023-03-16T04:01:34;-0.10;99.90
23532;DHT22;11943;52.270;20.978;2023-03-16T04:03:59;-0.10;99.90
23532;DHT22;11943;52.270;20.978;2023-03-16T04:06:25;-0.10;99.90
23532;DHT22;11943;52.270;20.978;2023-03-16T04:08:51;-0.10;99.90
23532;DHT22;11943;52.270;20.978;2023-03-16T04:11:19;-0.20;99.90
23532;DHT22;11943;52.270;20.978;2023-03-16T04:13:45;-0.20;99.90
23532;DHT22;11943;52.270;20.978;2023-03-16T04:16:11;-0.20;99.90
23532;DHT22;11943;52.270;20.978;2023-03-16T04:18:41;-0.20;99.90
23532;DHT22;11943;52.270;20.978;2023-03-16T04:21:12;-0.20;99.90
23532;DHT22;11943;52.270;20.978;2023-03-16T04:23:38;-0.20;99.90
23532;DHT22;11943;52.270;20.978;2023-03-16T04:26:04;-0.20;99.90
23532;DHT22;11943;52.270;20.978;2023-03-16T04:28:30;-0.20;99.90
23532;DHT22;11943;52.270;20.978;2023-03-16T04:31:04;-0.20;99.90
23532;DHT22;11943;52.270;20.978;2023-03-16T04:33:32;-0.20;99.90
23532;DHT22;11943;52.270;20.978;2023-03-16T04:35:58;-0.30;99.90
23532;DHT22;11943;52.270;20.978;2023-03-16T04:38:24;-0.20;99.90
23532;DHT22;11943;52.270;20.978;2023-03-16T04:40:49;-0.20;99.90
23532;DHT22;11943;52.270;20.978;2023-03-16T04:43:15;-0.20;99.90
23532;DHT22;11943;52.270;20.978;2023-03-16T04:45:41;-0.30;99.90
23532;DHT22;11943;52.270;20.978;2023-03-16T04:48:07;-0.30;99.90
23532;DHT22;11943;52.270;20.978;2023-03-16T04:50:33;-0.30;99.90
23532;DHT22;11943;52.270;20.978;2023-03-16T04:53:00;-0.30;99.90
23532;DHT22;11943;52.270;20.978;2023-03-16T04:55:25;-0.30;99.90
23532;DHT22;11943;52.270;20.978;2023-03-16T04:57:51;-0.30;99.90
23532;DHT22;11943;52.270;20.978;2023-03-16T05:00:17;-0.20;99.90
23532;DHT22;11943;52.270;20.978;2023-03-16T05:02:48;-0.20;99.90
23532;DHT22;11943;52.270;20.978;2023-03-16T05:05:14;-0.20;99.90
23532;DHT22;11943;52.270;20.978;2023-03-16T05:07:41;-0.30;99.90
23532;DHT22;11943;52.270;20.978;2023-03-16T05:10:08;-0.30;99.90
23532;DHT22;11943;52.270;20.978;2023-03-16T05:12:34;-0.20;99.90
23532;DHT22;11943;52.270;20.978;2023-03-16T05:15:00;-0.20;99.90
23532;DHT22;11943;52.270;20.978;2023-03-16T05:17:26;-0.20;99.90
23532;DHT22;11943;52.270;20.978;2023-03-16T05:19:52;-0.20;99.90
23532;DHT22;11943;52.270;20.978;2023-03-16T05:22:18;-0.20;99.90
23532;DHT22;11943;52.270;20.978;2023-03-16T05:24:43;-0.10;99.90
23532;DHT22;11943;52.270;20.978;2023-03-16T05:27:09;-0.10;99.90
23532;DHT22;11943;52.270;20.978;2023-03-16T05:29:35;0.00;99.90
23532;DHT22;11943;52.270;20.978;2023-03-16T05:32:00;0.00;99.90
23532;DHT22;11943;52.270;20.978;2023-03-16T05:34:26;-0.10;99.90
23532;DHT22;11943;52.270;20.978;2023-03-16T05:36:52;0.00;99.90
23532;DHT22;11943;52.270;20.978;2023-03-16T05:39:18;0.10;99.90
23532;DHT22;11943;52.270;20.978;2023-03-16T05:41:43;0.10;99.90
23532;DHT22;11943;52.270;20.978;2023-03-16T05:44:09;0.10;99.90
23532;DHT22;11943;52.270;20.978;2023-03-16T05:46:35;0.30;99.90
23532;DHT22;11943;52.270;20.978;2023-03-16T05:49:01;0.60;99.90
23532;DHT22;11943;52.270;20.978;2023-03-16T05:51:27;0.80;99.90
23532;DHT22;11943;52.270;20.978;2023-03-16T05:53:53;1.00;99.90
23532;DHT22;11943;52.270;20.978;2023-03-16T05:56:26;1.30;99.90
23532;DHT22;11943;52.270;20.978;2023-03-16T05:58:53;1.40;99.90
23532;DHT22;11943;52.270;20.978;2023-03-16T06:01:19;1.60;99.90
23532;DHT22;11943;52.270;20.978;2023-03-16T06:03:46;1.70;99.90
23532;DHT22;11943;52.270;20.978;2023-03-16T06:06:14;1.70;99.90
23532;DHT22;11943;52.270;20.978;2023-03-16T06:08:39;1.60;99.90
23532;DHT22;11943;52.270;20.978;2023-03-16T06:11:05;1.60;99.90
23532;DHT22;11943;52.270;20.978;2023-03-16T06:13:31;1.50;99.90
23532;DHT22;11943;52.270;20.978;2023-03-16T06:15:56;1.60;99.90
23532;DHT22;11943;52.270;20.978;2023-03-16T06:18:22;1.50;99.90
23532;DHT22;11943;52.270;20.978;2023-03-16T06:20:48;1.50;99.90
23532;DHT22;11943;52.270;20.978;2023-03-16T06:23:13;1.50;99.90
23532;DHT22;11943;52.270;20.978;2023-03-16T06:25:39;1.60;99.90
23532;DHT22;11943;52.270;20.978;2023-03-16T06:28:06;1.70;99.90
23532;DHT22;11943;52.270;20.978;2023-03-16T06:30:31;1.70;99.90
23532;DHT22;11943;52.270;20.978;2023-03-16T06:32:57;1.70;99.90
23532;DHT22;11943;52.270;20.978;2023-03-16T06:35:24;1.80;99.90
23532;DHT22;11943;52.270;20.978;2023-03-16T06:37:50;1.90;99.90
23532;DHT22;11943;52.270;20.978;2023-03-16T06:40:16;1.90;99.90
23532;DHT22;11943;52.270;20.978;2023-03-16T06:42:41;2.10;99.90
23532;DHT22;11943;52.270;20.978;2023-03-16T06:45:08;2.10;99.90
23532;DHT22;11943;52.270;20.978;2023-03-16T06:47:34;2.10;99.90
23532;DHT22;11943;52.270;20.978;2023-03-16T06:50:00;2.20;99.90
23532;DHT22;11943;52.270;20.978;2023-03-16T06:52:25;2.30;99.90
23532;DHT22;11943;52.270;20.978;2023-03-16T06:54:51;2.30;99.90
23532;DHT22;11943;52.270;20.978;2023-03-16T06:57:17;2.40;99.90
23532;DHT22;11943;52.270;20.978;2023-03-16T06:59:42;2.60;99.90
23532;DHT22;11943;52.270;20.978;2023-03-16T07:02:11;2.60;99.90
23532;DHT22;11943;52.270;20.978;2023-03-16T07:04:39;2.60;99.90
23532;DHT22;11943;52.270;20.978;2023-03-16T07:07:09;2.70;99.90
23532;DHT22;11943;52.270;20.978;2023-03-16T07:09:36;2.90;99.90
23532;DHT22;11943;52.270;20.978;2023-03-16T07:12:02;3.00;99.90
23532;DHT22;11943;52.270;20.978;2023-03-16T07:14:31;3.10;99.90
23532;DHT22;11943;52.270;20.978;2023-03-16T07:16:57;3.20;99.90
23532;DHT22;11943;52.270;20.978;2023-03-16T07:19:23;3.20;99.90
23532;DHT22;11943;52.270;20.978;2023-03-16T07:21:48;3.40;99.90
23532;DHT22;11943;52.270;20.978;2023-03-16T07:24:14;3.50;99.90
23532;DHT22;11943;52.270;20.978;2023-03-16T07:26:40;3.50;99.90
23532;DHT22;11943;52.270;20.978;2023-03-16T07:29:06;3.50;99.90
23532;DHT22;11943;52.270;20.978;2023-03-16T07:31:33;3.40;99.90
23532;DHT22;11943;52.270;20.978;2023-03-16T07:33:59;3.50;99.90
23532;DHT22;11943;52.270;20.978;2023-03-16T07:36:25;3.60;99.90
23532;DHT22;11943;52.270;20.978;2023-03-16T07:38:51;3.90;99.90
23532;DHT22;11943;52.270;20.978;2023-03-16T07:41:17;4.00;99.90
23532;DHT22;11943;52.270;20.978;2023-03-16T07:43:43;3.90;99.90
23532;DHT22;11943;52.270;20.978;2023-03-16T07:46:10;4.00;99.90
23532;DHT22;11943;52.270;20.978;2023-03-16T07:48:41;4.10;99.90
23532;DHT22;11943;52.270;20.978;2023-03-16T07:51:10;4.10;99.90
23532;DHT22;11943;52.270;20.978;2023-03-16T07:53:36;4.10;99.90
23532;DHT22;11943;52.270;20.978;2023-03-16T07:56:02;4.30;99.90
23532;DHT22;11943;52.270;20.978;2023-03-16T07:58:28;4.40;99.90
23532;DHT22;11943;52.270;20.978;2023-03-16T08:00:58;4.50;99.90
23532;DHT22;11943;52.270;20.978;2023-03-16T08:03:25;4.40;99.90
23532;DHT22;11943;52.270;20.978;2023-03-16T08:05:52;4.40;99.90
23532;DHT22;11943;52.270;20.978;2023-03-16T08:08:18;4.50;99.90
23532;DHT22;11943;52.270;20.978;2023-03-16T08:10:46;4.50;99.90
23532;DHT22;11943;52.270;20.978;2023-03-16T08:13:12;4.50;99.90
23532;DHT22;11943;52.270;20.978;2023-03-16T08:15:38;4.40;99.90
23532;DHT22;11943;52.270;20.978;2023-03-16T08:18:04;4.40;99.90
23532;DHT22;11943;52.270;20.978;2023-03-16T08:20:31;4.60;99.90
23532;DHT22;11943;52.270;20.978;2023-03-16T08:22:57;4.70;99.90
23532;DHT22;11943;52.270;20.978;2023-03-16T08:25:23;4.80;99.90
23532;DHT22;11943;52.270;20.978;2023-03-16T08:27:49;5.10;99.90
23532;DHT22;11943;52.270;20.978;2023-03-16T08:30:15;5.10;99.90
23532;DHT22;11943;52.270;20.978;2023-03-16T08:32:41;5.20;99.90
23532;DHT22;11943;52.270;20.978;2023-03-16T08:35:09;5.30;99.90
23532;DHT22;11943;52.270;20.978;2023-03-16T08:37:34;5.30;99.90
23532;DHT22;11943;52.270;20.978;2023-03-16T08:40:00;5.30;99.90
23532;DHT22;11943;52.270;20.978;2023-03-16T08:42:26;5.40;99.90
23532;DHT22;11943;52.270;20.978;2023-03-16T08:44:54;5.30;99.90
23532;DHT22;11943;52.270;20.978;2023-03-16T08:47:23;5.40;99.70
23532;DHT22;11943;52.270;20.978;2023-03-16T08:49:48;5.60;98.90
23532;DHT22;11943;52.270;20.978;2023-03-16T08:52:15;5.70;99.20
23532;DHT22;11943;52.270;20.978;2023-03-16T08:54:41;5.80;98.80
23532;DHT22;11943;52.270;20.978;2023-03-16T08:57:09;5.80;98.10
23532;DHT22;11943;52.270;20.978;2023-03-16T08:59:36;6.00;95.90
23532;DHT22;11943;52.270;20.978;2023-03-16T09:02:02;5.60;96.00
23532;DHT22;11943;52.270;20.978;2023-03-16T09:04:28;5.90;96.90
23532;DHT22;11943;52.270;20.978;2023-03-16T09:06:54;5.90;96.60
23532;DHT22;11943;52.270;20.978;2023-03-16T09:09:20;6.00;95.60
23532;DHT22;11943;52.270;20.978;2023-03-16T09:11:46;5.80;95.50
23532;DHT22;11943;52.270;20.978;2023-03-16T09:14:14;5.60;95.70
23532;DHT22;11943;52.270;20.978;2023-03-16T09:16:43;6.00;95.80
23532;DHT22;11943;52.270;20.978;2023-03-16T09:19:08;6.00;94.80
23532;DHT22;11943;52.270;20.978;2023-03-16T09:21:36;6.20;94.50
23532;DHT22;11943;52.270;20.978;2023-03-16T09:24:02;6.20;93.90
23532;DHT22;11943;52.270;20.978;2023-03-16T09:26:34;6.40;94.60
23532;DHT22;11943;52.270;20.978;2023-03-16T09:29:05;6.60;94.10
23532;DHT22;11943;52.270;20.978;2023-03-16T09:31:32;6.40;93.10
23532;DHT22;11943;52.270;20.978;2023-03-16T09:34:01;6.40;94.20
23532;DHT22;11943;52.270;20.978;2023-03-16T09:36:29;6.60;93.30
23532;DHT22;11943;52.270;20.978;2023-03-16T09:38:55;6.60;92.80
23532;DHT22;11943;52.270;20.978;2023-03-16T09:41:33;6.60;92.50
23532;DHT22;11943;52.270;20.978;2023-03-16T09:46:47;6.80;92.40
23532;DHT22;11943;52.270;20.978;2023-03-16T09:49:18;6.90;92.70
23532;DHT22;11943;52.270;20.978;2023-03-16T09:57:18;7.40;90.70
23532;DHT22;11943;52.270;20.978;2023-03-16T09:59:46;7.30;90.40
23532;DHT22;11943;52.270;20.978;2023-03-16T10:05:20;7.20;90.20
23532;DHT22;11943;52.270;20.978;2023-03-16T10:11:04;7.70;84.60
23532;DHT22;11943;52.270;20.978;2023-03-16T10:18:52;7.80;79.60
23532;DHT22;11943;52.270;20.978;2023-03-16T10:21:23;7.90;79.90
23532;DHT22;11943;52.270;20.978;2023-03-16T10:23:51;7.80;81.00
23532;DHT22;11943;52.270;20.978;2023-03-16T10:26:30;7.80;81.20
23532;DHT22;11943;52.270;20.978;2023-03-16T10:28:58;8.10;79.70
23532;DHT22;11943;52.270;20.978;2023-03-16T10:31:25;8.20;76.20
23532;DHT22;11943;52.270;20.978;2023-03-16T10:34:01;8.00;74.70
23532;DHT22;11943;52.270;20.978;2023-03-16T10:36:38;7.50;76.10
23532;DHT22;11943;52.270;20.978;2023-03-16T10:39:13;7.20;78.70
23532;DHT22;11943;52.270;20.978;2023-03-16T10:41:46;6.80;81.00
23532;DHT22;11943;52.270;20.978;2023-03-16T10:44:15;6.90;82.30
23532;DHT22;11943;52.270;20.978;2023-03-16T10:47:15;6.70;82.50
23532;DHT22;11943;52.270;20.978;2023-03-16T10:52:50;6.80;85.10
23532;DHT22;11943;52.270;20.978;2023-03-16T10:54:57;6.90;84.60
23532;DHT22;11943;52.270;20.978;2023-03-16T10:57:40;7.30;84.30
23532;DHT22;11943;52.270;20.978;2023-03-16T11:00:20;7.70;78.30
23532;DHT22;11943;52.270;20.978;2023-03-16T11:02:50;7.40;76.40
23532;DHT22;11943;52.270;20.978;2023-03-16T11:08:11;7.50;77.90
23532;DHT22;11943;52.270;20.978;2023-03-16T11:10:41;7.50;77.10
23532;DHT22;11943;52.270;20.978;2023-03-16T11:13:15;7.30;76.30
23532;DHT22;11943;52.270;20.978;2023-03-16T11:16:02;7.10;75.90
23532;DHT22;11943;52.270;20.978;2023-03-16T11:18:36;7.00;76.30
23532;DHT22;11943;52.270;20.978;2023-03-16T11:24:38;7.00;80.90
23532;DHT22;11943;52.270;20.978;2023-03-16T11:30:08;6.90;73.80
23532;DHT22;11943;52.270;20.978;2023-03-16T11:32:38;6.70;75.20
23532;DHT22;11943;52.270;20.978;2023-03-16T11:35:17;6.60;76.50
23532;DHT22;11943;52.270;20.978;2023-03-16T11:37:52;6.40;82.20
23532;DHT22;11943;52.270;20.978;2023-03-16T11:45:50;6.20;87.70
23532;DHT22;11943;52.270;20.978;2023-03-16T11:48:36;6.20;88.50
23532;DHT22;11943;52.270;20.978;2023-03-16T11:51:08;6.20;88.10
23532;DHT22;11943;52.270;20.978;2023-03-16T11:56:31;6.40;88.60
23532;DHT22;11943;52.270;20.978;2023-03-16T12:10:11;6.30;82.50
23532;DHT22;11943;52.270;20.978;2023-03-16T12:13:03;6.20;83.20
23532;DHT22;11943;52.270;20.978;2023-03-16T12:15:33;6.10;83.60
23532;DHT22;11943;52.270;20.978;2023-03-16T12:18:17;6.20;84.10
23532;DHT22;11943;52.270;20.978;2023-03-16T12:23:27;6.10;85.10
23532;DHT22;11943;52.270;20.978;2023-03-16T12:25:55;6.20;84.90
23532;DHT22;11943;52.270;20.978;2023-03-16T12:28:26;6.20;85.50
23532;DHT22;11943;52.270;20.978;2023-03-16T12:31:19;6.20;84.90
23532;DHT22;11943;52.270;20.978;2023-03-16T12:34:08;6.20;85.10
23532;DHT22;11943;52.270;20.978;2023-03-16T12:36:49;6.20;86.50
23532;DHT22;11943;52.270;20.978;2023-03-16T12:44:54;6.60;85.00
23532;DHT22;11943;52.270;20.978;2023-03-16T12:50:13;6.60;84.10
23532;DHT22;11943;52.270;20.978;2023-03-16T12:52:45;6.60;84.60
23532;DHT22;11943;52.270;20.978;2023-03-16T12:55:18;6.60;85.40
23532;DHT22;11943;52.270;20.978;2023-03-16T12:57:47;6.60;87.30
23532;DHT22;11943;52.270;20.978;2023-03-16T13:00:14;6.70;85.60
23532;DHT22;11943;52.270;20.978;2023-03-16T13:02:50;6.50;85.00
23532;DHT22;11943;52.270;20.978;2023-03-16T13:05:18;6.60;85.10
23532;DHT22;11943;52.270;20.978;2023-03-16T13:08:10;6.60;84.20
23532;DHT22;11943;52.270;20.978;2023-03-16T13:10:38;6.60;84.40
23532;DHT22;11943;52.270;20.978;2023-03-16T13:13:15;6.60;84.00
23532;DHT22;11943;52.270;20.978;2023-03-16T13:15:42;6.50;83.00
23532;DHT22;11943;52.270;20.978;2023-03-16T13:24:11;6.50;85.60
23532;DHT22;11943;52.270;20.978;2023-03-16T13:26:14;6.50;87.20
23532;DHT22;11943;52.270;20.978;2023-03-16T13:28:41;6.50;85.20
23532;DHT22;11943;52.270;20.978;2023-03-16T13:31:35;6.40;85.00
23532;DHT22;11943;52.270;20.978;2023-03-16T13:34:02;6.60;84.60
23532;DHT22;11943;52.270;20.978;2023-03-16T13:36:29;6.50;82.40
23532;DHT22;11943;52.270;20.978;2023-03-16T13:39:05;6.60;81.90
23532;DHT22;11943;52.270;20.978;2023-03-16T13:41:31;6.70;82.50
23532;DHT22;11943;52.270;20.978;2023-03-16T13:43:57;6.60;82.60
23532;DHT22;11943;52.270;20.978;2023-03-16T13:46:27;6.60;83.60
23532;DHT22;11943;52.270;20.978;2023-03-16T13:48:57;6.70;83.70
23532;DHT22;11943;52.270;20.978;2023-03-16T13:51:25;6.80;82.80
23532;DHT22;11943;52.270;20.978;2023-03-16T13:53:50;6.80;83.50
23532;DHT22;11943;52.270;20.978;2023-03-16T13:56:21;6.90;81.90
23532;DHT22;11943;52.270;20.978;2023-03-16T13:58:51;6.80;77.40
23532;DHT22;11943;52.270;20.978;2023-03-16T14:01:28;6.70;77.20
23532;DHT22;11943;52.270;20.978;2023-03-16T14:03:58;6.60;76.30
23532;DHT22;11943;52.270;20.978;2023-03-16T14:06:26;6.50;76.60
23532;DHT22;11943;52.270;20.978;2023-03-16T14:08:57;6.50;77.80
23532;DHT22;11943;52.270;20.978;2023-03-16T14:11:25;6.60;77.70
23532;DHT22;11943;52.270;20.978;2023-03-16T14:13:56;6.60;78.60
23532;DHT22;11943;52.270;20.978;2023-03-16T14:16:24;6.70;80.30
23532;DHT22;11943;52.270;20.978;2023-03-16T14:19:01;6.60;78.70
23532;DHT22;11943;52.270;20.978;2023-03-16T14:21:29;6.50;79.20
23532;DHT22;11943;52.270;20.978;2023-03-16T14:23:59;6.40;80.20
23532;DHT22;11943;52.270;20.978;2023-03-16T14:26:42;6.50;80.60
23532;DHT22;11943;52.270;20.978;2023-03-16T14:29:30;6.70;82.00
23532;DHT22;11943;52.270;20.978;2023-03-16T14:31:57;6.70;79.80
23532;DHT22;11943;52.270;20.978;2023-03-16T14:34:34;6.70;80.00
23532;DHT22;11943;52.270;20.978;2023-03-16T14:37:12;6.60;80.20
23532;DHT22;11943;52.270;20.978;2023-03-16T14:39:38;6.60;79.50
23532;DHT22;11943;52.270;20.978;2023-03-16T14:42:12;6.60;78.80
23532;DHT22;11943;52.270;20.978;2023-03-16T14:44:39;6.60;79.10
23532;DHT22;11943;52.270;20.978;2023-03-16T14:47:05;6.50;79.00
23532;DHT22;11943;52.270;20.978;2023-03-16T14:49:36;6.60;79.70
23532;DHT22;11943;52.270;20.978;2023-03-16T14:52:06;6.50;78.50
23532;DHT22;11943;52.270;20.978;2023-03-16T14:54:33;6.40;78.60
23532;DHT22;11943;52.270;20.978;2023-03-16T14:57:02;6.30;78.00
23532;DHT22;11943;52.270;20.978;2023-03-16T14:59:30;6.30;78.80
23532;DHT22;11943;52.270;20.978;2023-03-16T15:01:56;6.30;78.50
23532;DHT22;11943;52.270;20.978;2023-03-16T15:04:31;6.40;78.90
23532;DHT22;11943;52.270;20.978;2023-03-16T15:06:57;6.30;79.20
23532;DHT22;11943;52.270;20.978;2023-03-16T15:09:34;6.20;81.30
23532;DHT22;11943;52.270;20.978;2023-03-16T15:12:00;6.20;81.80
23532;DHT22;11943;52.270;20.978;2023-03-16T15:14:26;6.10;81.90
23532;DHT22;11943;52.270;20.978;2023-03-16T15:17:10;6.20;81.60
23532;DHT22;11943;52.270;20.978;2023-03-16T15:19:36;6.20;80.70
23532;DHT22;11943;52.270;20.978;2023-03-16T15:22:02;6.10;78.90
23532;DHT22;11943;52.270;20.978;2023-03-16T15:24:29;6.10;77.10
23532;DHT22;11943;52.270;20.978;2023-03-16T15:26:56;6.20;76.60
23532;DHT22;11943;52.270;20.978;2023-03-16T15:29:22;6.30;76.60
23532;DHT22;11943;52.270;20.978;2023-03-16T15:31:48;6.30;75.70
23532;DHT22;11943;52.270;20.978;2023-03-16T15:34:13;6.30;75.60
23532;DHT22;11943;52.270;20.978;2023-03-16T15:36:40;6.30;75.60
23532;DHT22;11943;52.270;20.978;2023-03-16T15:39:15;6.30;76.40
23532;DHT22;11943;52.270;20.978;2023-03-16T15:41:44;6.30;76.60
23532;DHT22;11943;52.270;20.978;2023-03-16T15:44:13;6.30;76.80
23532;DHT22;11943;52.270;20.978;2023-03-16T15:46:38;6.30;78.00
23532;DHT22;11943;52.270;20.978;2023-03-16T15:49:04;6.30;77.50
23532;DHT22;11943;52.270;20.978;2023-03-16T15:51:30;6.30;78.70
23532;DHT22;11943;52.270;20.978;2023-03-16T15:53:58;6.20;80.60
23532;DHT22;11943;52.270;20.978;2023-03-16T15:56:28;6.20;80.80
23532;DHT22;11943;52.270;20.978;2023-03-16T15:58:56;6.30;81.00
23532;DHT22;11943;52.270;20.978;2023-03-16T16:01:26;6.20;81.00
23532;DHT22;11943;52.270;20.978;2023-03-16T16:03:53;6.30;82.60
23532;DHT22;11943;52.270;20.978;2023-03-16T16:06:20;6.20;84.10
23532;DHT22;11943;52.270;20.978;2023-03-16T16:08:46;6.10;86.50
23532;DHT22;11943;52.270;20.978;2023-03-16T16:11:25;6.00;87.00
23532;DHT22;11943;52.270;20.978;2023-03-16T16:13:54;5.90;88.20
23532;DHT22;11943;52.270;20.978;2023-03-16T16:16:20;5.80;89.00
23532;DHT22;11943;52.270;20.978;2023-03-16T16:18:46;5.60;89.60
23532;DHT22;11943;52.270;20.978;2023-03-16T16:21:18;5.50;90.30
23532;DHT22;11943;52.270;20.978;2023-03-16T16:23:45;5.40;90.00
23532;DHT22;11943;52.270;20.978;2023-03-16T16:26:31;5.30;90.00
23532;DHT22;11943;52.270;20.978;2023-03-16T16:28:59;5.20;90.40
23532;DHT22;11943;52.270;20.978;2023-03-16T16:31:27;5.10;90.70
23532;DHT22;11943;52.270;20.978;2023-03-16T16:33:54;5.10;91.30
23532;DHT22;11943;52.270;20.978;2023-03-16T16:36:20;5.00;91.70
23532;DHT22;11943;52.270;20.978;2023-03-16T16:38:47;4.90;91.50
23532;DHT22;11943;52.270;20.978;2023-03-16T16:41:26;4.80;91.70
23532;DHT22;11943;52.270;20.978;2023-03-16T16:43:53;4.80;92.00
23532;DHT22;11943;52.270;20.978;2023-03-16T16:46:21;4.80;91.90
23532;DHT22;11943;52.270;20.978;2023-03-16T16:49:06;4.80;92.10
23532;DHT22;11943;52.270;20.978;2023-03-16T16:51:32;4.70;92.50
23532;DHT22;11943;52.270;20.978;2023-03-16T16:53:59;4.60;92.90
23532;DHT22;11943;52.270;20.978;2023-03-16T16:56:34;4.60;93.10
23532;DHT22;11943;52.270;20.978;2023-03-16T16:59:09;4.60;93.30